CheckWX is a tool to help pilots better visualize weather data.  It is not intended as a substitute for an official pre-flight weather briefing.

17:30:36 UTC

MMPQ TAF
Palenque International Airport
Mexico
TAF MMPQ 240502Z 2406/2506 00000KT 5SM HZ SKC FM241700 08010KT P6SM SCT030 FM250200 08005KT 6SM HZ SCT020

Mar-24@
06:00 UTC

Mar-24 @ 06:00 UTC

Mar-24@
17:00 UTC

Mar-24 @ 17:00 UTC

TAF MMPQ 240502Z 2406/2506 00000KT 5SM HZ SKC

Expired

Conditions
Haze
Cloud Levels
  • Clear skies

Mar-24@
17:00 UTC

Mar-24 @ 17:00 UTC

Mar-25@
02:00 UTC

Mar-25 @ 02:00 UTC

FM241700 08010KT P6SM SCT030

From

From Standard forecast or significant change

Wind
  • 080° at 10 KTS
Cloud Levels
  • Scattered at 3,000' AGL

Mar-25@
02:00 UTC

Mar-25 @ 02:00 UTC

Mar-25@
06:00 UTC

Mar-25 @ 06:00 UTC

FM250200 08005KT 6SM HZ SCT020

From

From Standard forecast or significant change

Wind
  • 080° at 5 KTS
Conditions
Haze
Cloud Levels
  • Scattered at 2,000' AGL